Time;durP1;ratioP1;P1;durP2;ratioP2;P2;SDS_P1;SDS_P2;PMS_P1;PMS_P2;Temp;Humidity;BMP_temperature;BMP_pressure;BME280_temperature;BME280_humidity;BME280_pressure;Samples;Min_cycle;Max_cycle;Signal;HPM_P1;HPM_P2
2022/03/10 00:00:23;;;;;;;9.48;1.90;;;;;;;;;;5002310;28;20060;-63
2022/03/10 00:02:53;;;;;;;2.63;1.50;;;;;;;;;;5051506;28;20065;-63
2022/03/10 00:05:28;;;;;;;5.32;2.30;;;;;;;;;;5051337;28;20060;-63
2022/03/10 00:08:03;;;;;;;5.25;1.73;;;;;;;;;;5051226;28;20061;-63
2022/03/10 00:10:33;;;;;;;5.15;1.98;;;;;;;;;;5017710;28;20060;-63
2022/03/10 00:13:08;;;;;;;8.45;2.17;;;;;;;;;;5035546;28;20056;-63
2022/03/10 00:15:41;;;;;;;3.80;1.77;;;;;;;;;;5050986;28;20064;-63
2022/03/10 00:18:13;;;;;;;5.78;2.30;;;;;;;;;;5050945;28;20052;-63
2022/03/10 00:20:45;;;;;;;4.30;1.90;;;;;;;;;;5034964;28;20103;-63
2022/03/10 00:23:18;;;;;;;4.70;2.42;;;;;;;;;;5050967;28;21040;-63
2022/03/10 00:25:49;;;;;;;4.55;2.00;;;;;;;;;;5051071;28;20045;-63
2022/03/10 00:28:23;;;;;;;5.25;2.30;;;;;;;;;;5052697;28;20064;-63
2022/03/10 00:30:53;;;;;;;4.75;2.10;;;;;;;;;;5053161;28;20048;-63
2022/03/10 00:33:32;;;;;;;3.92;2.38;;;;;;;;;;5053036;28;20052;-64
2022/03/10 00:36:06;;;;;;;5.65;2.03;;;;;;;;;;5030673;28;20520;-63
2022/03/10 00:38:45;;;;;;;6.07;1.85;;;;;;;;;;4999436;28;20050;-63
2022/03/10 00:41:18;;;;;;;5.65;1.98;;;;;;;;;;5010900;28;20069;-63
2022/03/10 00:43:52;;;;;;;6.30;1.65;;;;;;;;;;5010882;28;20057;-63
2022/03/10 00:46:24;;;;;;;8.10;1.65;;;;;;;;;;5010814;28;20049;-63
2022/03/10 00:48:59;;;;;;;4.65;1.77;;;;;;;;;;5010909;28;20058;-63
2022/03/10 00:51:30;;;;;;;5.97;1.70;;;;;;;;;;4990508;28;20132;-63
2022/03/10 00:54:02;;;;;;;4.93;1.70;;;;;;;;;;4992553;28;20108;-63
2022/03/10 00:56:33;;;;;;;6.20;1.65;;;;;;;;;;4971339;28;20058;-63
2022/03/10 00:59:04;;;;;;;7.13;1.52;;;;;;;;;;4923641;28;20533;-63
2022/03/10 01:01:35;;;;;;;3.45;1.65;;;;;;;;;;4971560;28;20062;-63
2022/03/10 01:04:06;;;;;;;7.65;1.42;;;;;;;;;;4939153;28;20066;-63
2022/03/10 01:06:40;;;;;;;6.47;1.65;;;;;;;;;;4940214;28;20051;-63
2022/03/10 01:09:14;;;;;;;6.55;1.60;;;;;;;;;;4955079;28;20789;-63
2022/03/10 01:11:45;;;;;;;9.15;1.77;;;;;;;;;;4898066;29;20063;-63
2022/03/10 01:14:15;;;;;;;8.13;2.05;;;;;;;;;;4927260;29;20055;-63
2022/03/10 01:16:48;;;;;;;6.97;1.42;;;;;;;;;;4932926;29;20064;-63
2022/03/10 01:19:21;;;;;;;4.50;1.85;;;;;;;;;;4945442;29;20055;-63
2022/03/10 01:21:51;;;;;;;6.93;1.63;;;;;;;;;;4920158;29;20070;-63
2022/03/10 01:24:23;;;;;;;6.80;1.65;;;;;;;;;;4936379;29;20397;-63
2022/03/10 01:26:55;;;;;;;5.80;1.50;;;;;;;;;;4936233;29;20059;-63
2022/03/10 01:29:28;;;;;;;3.65;1.40;;;;;;;;;;4975346;28;20058;-63
2022/03/10 01:31:59;;;;;;;4.07;1.38;;;;;;;;;;4974285;28;20054;-63
2022/03/10 01:34:36;;;;;;;7.13;1.50;;;;;;;;;;4977909;28;20069;-63
2022/03/10 01:37:07;;;;;;;7.50;1.92;;;;;;;;;;5029669;28;20415;-63
2022/03/10 01:39:40;;;;;;;5.03;1.42;;;;;;;;;;4973511;28;20414;-63
2022/03/10 01:42:12;;;;;;;3.17;1.60;;;;;;;;;;4990062;28;20062;-62
2022/03/10 01:44:43;;;;;;;3.47;1.60;;;;;;;;;;4957603;28;20058;-63
2022/03/10 01:47:17;;;;;;;3.10;1.40;;;;;;;;;;4942124;28;20062;-63
2022/03/10 01:49:51;;;;;;;4.32;1.63;;;;;;;;;;4983654;28;20045;-63
2022/03/10 01:52:22;;;;;;;4.13;1.70;;;;;;;;;;5049148;28;20064;-63
2022/03/10 01:54:54;;;;;;;2.97;1.33;;;;;;;;;;5048909;28;20084;-63
2022/03/10 01:57:25;;;;;;;6.45;1.42;;;;;;;;;;5049415;28;20068;-64
2022/03/10 01:59:59;;;;;;;6.45;1.48;;;;;;;;;;5048952;28;20037;-63
2022/03/10 02:02:32;;;;;;;5.30;1.40;;;;;;;;;;5008585;28;20057;-63
2022/03/10 02:05:04;;;;;;;4.47;1.63;;;;;;;;;;5009413;28;20065;-64
2022/03/10 02:10:35;;;;;;;3.95;1.30;;;;;;;;;;5009142;28;20556;-63
2022/03/10 02:13:05;;;;;;;3.67;1.30;;;;;;;;;;5009256;28;20057;-63
2022/03/10 02:18:28;;;;;;;5.80;1.45;;;;;;;;;;4958051;28;20522;-67
2022/03/10 02:21:01;;;;;;;4.85;1.30;;;;;;;;;;4989540;28;20062;-66
2022/03/10 02:23:31;;;;;;;4.15;1.20;;;;;;;;;;4956979;28;20058;-66
2022/03/10 02:26:02;;;;;;;;;;;;;;;;;;4989762;28;20061;-66
2022/03/10 02:28:36;;;;;;;3.72;1.33;;;;;;;;;;4973138;28;19922;-65
2022/03/10 02:31:11;;;;;;;4.85;1.30;;;;;;;;;;4953674;28;20054;-64
2022/03/10 02:33:43;;;;;;;8.43;1.30;;;;;;;;;;4953515;28;20443;-64
2022/03/10 02:36:16;;;;;;;10.68;1.40;;;;;;;;;;4954757;28;20062;-64
2022/03/10 02:38:46;;;;;;;3.72;1.10;;;;;;;;;;4970177;28;20051;-64
2022/03/10 02:41:18;;;;;;;8.43;1.20;;;;;;;;;;5009031;28;20069;-64
2022/03/10 02:43:48;;;;;;;4.68;1.00;;;;;;;;;;4977061;28;20046;-63
2022/03/10 02:46:19;;;;;;;4.03;1.50;;;;;;;;;;5008920;28;20055;-64
2022/03/10 02:48:50;;;;;;;9.15;1.05;;;;;;;;;;4988778;28;20046;-64
2022/03/10 02:51:22;;;;;;;5.85;1.17;;;;;;;;;;4969467;28;20455;-63
2022/03/10 02:53:53;;;;;;;4.40;1.75;;;;;;;;;;4999207;28;20062;-64
2022/03/10 02:56:26;;;;;;;4.75;1.40;;;;;;;;;;4989197;28;20521;-64
2022/03/10 02:58:57;;;;;;;4.22;1.40;;;;;;;;;;4989192;28;20043;-64
2022/03/10 03:01:30;;;;;;;3.67;1.48;;;;;;;;;;4988921;28;20047;-64
2022/03/10 03:04:02;;;;;;;6.05;1.60;;;;;;;;;;4957377;28;20051;-64
2022/03/10 03:06:34;;;;;;;4.45;1.50;;;;;;;;;;4989122;28;20062;-64
2022/03/10 03:09:06;;;;;;;2.85;1.55;;;;;;;;;;4956822;28;20058;-63
2022/03/10 03:11:38;;;;;;;4.95;1.50;;;;;;;;;;4989248;28;20050;-63
2022/03/10 03:14:07;;;;;;;9.88;1.40;;;;;;;;;;4990168;28;20054;-63
2022/03/10 03:16:41;;;;;;;10.63;1.70;;;;;;;;;;4993171;28;20058;-63
2022/03/10 03:19:12;;;;;;;5.10;1.33;;;;;;;;;;4973541;28;20043;-63
2022/03/10 03:21:42;;;;;;;8.35;1.30;;;;;;;;;;4941185;28;20582;-63
2022/03/10 03:24:13;;;;;;;3.85;1.50;;;;;;;;;;4973312;28;20059;-64
2022/03/10 03:26:43;;;;;;;2.92;1.60;;;;;;;;;;4996663;28;20060;-64
2022/03/10 03:29:17;;;;;;;3.38;1.55;;;;;;;;;;5012116;28;20565;-63
2022/03/10 03:31:53;;;;;;;6.53;1.58;;;;;;;;;;5011973;28;20049;-63
2022/03/10 03:34:23;;;;;;;2.97;1.42;;;;;;;;;;5012111;28;20426;-64
2022/03/10 03:36:53;;;;;;;7.28;1.55;;;;;;;;;;4992442;28;20057;-63
2022/03/10 03:39:25;;;;;;;3.90;1.30;;;;;;;;;;4992491;28;20054;-64
2022/03/10 03:41:59;;;;;;;6.35;1.75;;;;;;;;;;4992379;28;20059;-63
2022/03/10 03:44:30;;;;;;;10.18;1.30;;;;;;;;;;4992395;28;20069;-63
2022/03/10 03:47:01;;;;;;;11.63;1.60;;;;;;;;;;4992258;28;20069;-63
2022/03/10 03:49:32;;;;;;;2.60;1.05;;;;;;;;;;4995074;28;20062;-64
2022/03/10 03:52:04;;;;;;;5.00;1.30;;;;;;;;;;4979263;28;20061;-64
2022/03/10 03:54:34;;;;;;;6.72;1.48;;;;;;;;;;4975505;28;20061;-63
2022/03/10 03:57:04;;;;;;;4.93;1.55;;;;;;;;;;4992391;28;20081;-64
2022/03/10 03:59:35;;;;;;;8.48;1.35;;;;;;;;;;4992048;28;20065;-63
2022/03/10 04:02:08;;;;;;;11.15;1.55;;;;;;;;;;5011513;28;20053;-63
2022/03/10 04:04:41;;;;;;;5.82;1.35;;;;;;;;;;5011773;28;20437;-64
2022/03/10 04:07:11;;;;;;;;;;;;;;;;;;5012155;28;20065;-64
2022/03/10 04:09:41;;;;;;;5.60;1.45;;;;;;;;;;5023187;28;19921;-64
2022/03/10 04:12:12;;;;;;;8.30;1.65;;;;;;;;;;5031097;28;20053;-63
2022/03/10 04:14:44;;;;;;;4.20;1.17;;;;;;;;;;5042744;28;20053;-63
2022/03/10 04:17:16;;;;;;;9.27;1.25;;;;;;;;;;5051069;28;20041;-63
2022/03/10 04:19:48;;;;;;;5.60;1.60;;;;;;;;;;5035126;28;20068;-64
2022/03/10 04:22:21;;;;;;;10.57;1.75;;;;;;;;;;5035104;28;20497;-63
2022/03/10 04:24:56;;;;;;;4.55;1.50;;;;;;;;;;5010575;28;20049;-63
2022/03/10 04:27:28;;;;;;;6.43;1.42;;;;;;;;;;5010645;28;20065;-63
2022/03/10 04:30:02;;;;;;;5.43;1.30;;;;;;;;;;5011183;28;20558;-64
2022/03/10 04:32:46;;;;;;;3.60;1.42;;;;;;;;;;4969052;28;20061;-63
2022/03/10 04:35:20;;;;;;;;;;;;;;;;;;5011567;28;20079;-64
2022/03/10 04:37:52;;;;;;;4.75;1.40;;;;;;;;;;4978441;28;20436;-64
2022/03/10 04:40:25;;;;;;;4.13;1.20;;;;;;;;;;5026886;28;20465;-63
2022/03/10 04:42:55;;;;;;;4.72;1.52;;;;;;;;;;5013998;28;20517;-64
2022/03/10 04:45:31;;;;;;;5.35;1.65;;;;;;;;;;4982176;28;20720;-63
2022/03/10 04:48:06;;;;;;;10.88;1.42;;;;;;;;;;5030587;28;20062;-64
2022/03/10 04:50:38;;;;;;;3.17;1.35;;;;;;;;;;5030710;28;20061;-63
2022/03/10 04:53:09;;;;;;;2.35;1.13;;;;;;;;;;5014267;28;20056;-64
2022/03/10 04:55:41;;;;;;;5.00;1.27;;;;;;;;;;5012492;28;20056;-64
2022/03/10 04:58:14;;;;;;;4.68;1.73;;;;;;;;;;5050236;28;20582;-64
2022/03/10 05:00:46;;;;;;;4.38;1.33;;;;;;;;;;5033826;28;20056;-64
2022/03/10 05:03:16;;;;;;;4.60;1.67;;;;;;;;;;5068926;28;20423;-64
2022/03/10 05:05:51;;;;;;;7.18;1.70;;;;;;;;;;5072590;28;20045;-64
2022/03/10 05:08:23;;;;;;;5.82;1.40;;;;;;;;;;5069880;28;20052;-64
2022/03/10 05:10:53;;;;;;;3.55;1.20;;;;;;;;;;5070087;28;20505;-64
2022/03/10 05:13:23;;;;;;;6.30;1.42;;;;;;;;;;5069831;28;20060;-64
2022/03/10 05:15:55;;;;;;;5.38;1.63;;;;;;;;;;5069941;28;20061;-64
2022/03/10 05:18:29;;;;;;;7.60;1.42;;;;;;;;;;5069702;28;20079;-64
2022/03/10 05:21:02;;;;;;;;;;;;;;;;;;5070321;28;20044;-64
2022/03/10 05:23:33;;;;;;;2.97;1.38;;;;;;;;;;5070284;28;19948;-64
2022/03/10 05:26:03;;;;;;;4.25;1.25;;;;;;;;;;5053653;28;20187;-64
2022/03/10 05:28:36;;;;;;;6.65;1.75;;;;;;;;;;5069683;28;20460;-64
2022/03/10 05:31:10;;;;;;;3.40;1.15;;;;;;;;;;5069805;28;20056;-64
2022/03/10 05:33:44;;;;;;;2.65;1.35;;;;;;;;;;5069365;28;20523;-64
2022/03/10 05:36:16;;;;;;;14.52;1.45;;;;;;;;;;5069571;28;20488;-64
2022/03/10 05:38:46;;;;;;;6.95;1.60;;;;;;;;;;5052705;28;20119;-64
2022/03/10 05:41:23;;;;;;;4.50;1.30;;;;;;;;;;5071969;28;20412;-64
2022/03/10 05:44:00;;;;;;;8.50;1.50;;;;;;;;;;5052692;28;20044;-64
2022/03/10 05:46:32;;;;;;;3.28;1.20;;;;;;;;;;5071687;28;20074;-64
2022/03/10 05:49:03;;;;;;;5.57;1.23;;;;;;;;;;5071878;28;20066;-64
2022/03/10 05:51:36;;;;;;;2.67;1.33;;;;;;;;;;5015888;28;20053;-64
2022/03/10 05:54:07;;;;;;;;;;;;;;;;;;5049553;28;20570;-64
2022/03/10 05:56:36;;;;;;;3.88;1.20;;;;;;;;;;5049405;28;19921;-64
2022/03/10 05:59:06;;;;;;;7.88;1.40;;;;;;;;;;5049314;28;20414;-64
2022/03/10 06:01:40;;;;;;;6.93;1.10;;;;;;;;;;5049146;28;20049;-64
2022/03/10 06:04:13;;;;;;;5.30;1.00;;;;;;;;;;5049118;28;20077;-64
2022/03/10 06:06:46;;;;;;;3.88;1.40;;;;;;;;;;4989642;28;20055;-64
2022/03/10 06:09:22;;;;;;;6.07;1.33;;;;;;;;;;4989852;28;20062;-64
2022/03/10 06:11:52;;;;;;;4.10;1.30;;;;;;;;;;4957276;28;20654;-64
2022/03/10 06:14:24;;;;;;;3.35;1.40;;;;;;;;;;4958274;28;20057;-64
2022/03/10 06:16:55;;;;;;;6.45;1.60;;;;;;;;;;4989486;28;20062;-64
2022/03/10 06:19:25;;;;;;;2.65;1.15;;;;;;;;;;4989634;28;20058;-64
2022/03/10 06:21:55;;;;;;;3.95;1.15;;;;;;;;;;4989333;28;20065;-64
2022/03/10 06:24:27;;;;;;;7.35;1.05;;;;;;;;;;4989549;28;20567;-64
2022/03/10 06:26:58;;;;;;;5.90;1.42;;;;;;;;;;4989655;28;20051;-64
2022/03/10 06:29:28;;;;;;;8.18;1.50;;;;;;;;;;4980701;28;20061;-64
2022/03/10 06:31:59;;;;;;;2.63;1.40;;;;;;;;;;4996007;28;20508;-64
2022/03/10 06:34:34;;;;;;;8.90;1.33;;;;;;;;;;4996018;28;20046;-64
2022/03/10 06:37:06;;;;;;;3.65;1.40;;;;;;;;;;4989049;28;20061;-64
2022/03/10 06:39:37;;;;;;;4.38;1.42;;;;;;;;;;4972909;28;20573;-64
2022/03/10 06:42:09;;;;;;;5.57;1.50;;;;;;;;;;4925490;28;20054;-64
2022/03/10 06:44:40;;;;;;;3.15;1.20;;;;;;;;;;4994285;28;20064;-64
2022/03/10 06:47:15;;;;;;;6.40;1.48;;;;;;;;;;5008438;28;20502;-64
2022/03/10 06:49:49;;;;;;;7.35;1.30;;;;;;;;;;4976703;28;20053;-64
2022/03/10 06:52:20;;;;;;;8.35;1.20;;;;;;;;;;5008571;28;20054;-64
2022/03/10 06:54:54;;;;;;;7.47;1.40;;;;;;;;;;4991950;28;20069;-64
2022/03/10 06:57:26;;;;;;;8.73;1.35;;;;;;;;;;5008673;28;20391;-64
2022/03/10 06:59:55;;;;;;;2.67;1.10;;;;;;;;;;5008464;28;20486;-64
2022/03/10 07:02:26;;;;;;;8.00;1.27;;;;;;;;;;5008495;28;20050;-63
2022/03/10 07:04:58;;;;;;;9.75;1.63;;;;;;;;;;5008700;28;20510;-64
2022/03/10 07:07:31;;;;;;;8.40;1.42;;;;;;;;;;5008718;28;20058;-64
2022/03/10 07:10:01;;;;;;;5.07;1.25;;;;;;;;;;4972775;28;20054;-64
2022/03/10 07:12:38;;;;;;;2.88;1.23;;;;;;;;;;4988634;28;20062;-64
2022/03/10 07:15:11;;;;;;;4.72;1.67;;;;;;;;;;4988881;28;20061;-64
2022/03/10 07:17:43;;;;;;;5.85;1.02;;;;;;;;;;4953611;28;20503;-63
2022/03/10 07:20:20;;;;;;;4.63;1.10;;;;;;;;;;4969570;28;20055;-64
2022/03/10 07:22:54;;;;;;;1.92;1.17;;;;;;;;;;4969398;28;20058;-64
2022/03/10 07:25:24;;;;;;;10.32;1.50;;;;;;;;;;4982526;28;20506;-63
2022/03/10 07:27:59;;;;;;;9.85;1.40;;;;;;;;;;4977405;28;20057;-64
2022/03/10 07:30:33;;;;;;;;;;;;;;;;;;4977064;28;20050;-64
2022/03/10 07:33:05;;;;;;;2.90;1.08;;;;;;;;;;5008490;28;19929;-64
2022/03/10 07:35:35;;;;;;;4.35;1.20;;;;;;;;;;4991658;28;20058;-64
2022/03/10 07:38:07;;;;;;;4.93;1.40;;;;;;;;;;4991916;28;20054;-64
2022/03/10 07:40:40;;;;;;;6.10;1.10;;;;;;;;;;5008612;28;20558;-64
2022/03/10 07:43:10;;;;;;;8.02;1.85;;;;;;;;;;4992035;28;20054;-64
2022/03/10 07:45:40;;;;;;;5.70;1.30;;;;;;;;;;4968939;28;20051;-64
2022/03/10 07:48:14;;;;;;;4.53;1.35;;;;;;;;;;4997471;28;20054;-64
2022/03/10 07:50:45;;;;;;;;;;;;;;;;;;5008843;28;20062;-64
2022/03/10 07:53:15;;;;;;;6.43;1.58;;;;;;;;;;5008268;28;19925;-64
2022/03/10 07:55:47;;;;;;;5.55;1.30;;;;;;;;;;4986352;28;20528;-64
2022/03/10 07:58:22;;;;;;;5.07;1.27;;;;;;;;;;4968741;28;20055;-64
2022/03/10 08:00:57;;;;;;;4.60;1.25;;;;;;;;;;4955284;28;20523;-64
2022/03/10 08:03:29;;;;;;;7.80;1.30;;;;;;;;;;4972469;28;20188;-64
2022/03/10 08:05:59;;;;;;;5.55;1.30;;;;;;;;;;4933888;29;20054;-64
2022/03/10 08:08:34;;;;;;;2.60;1.10;;;;;;;;;;4902165;29;20048;-64
2022/03/10 08:11:05;;;;;;;;;;;;;;;;;;4934536;29;20059;-64
2022/03/10 08:13:35;;;;;;;8.55;1.50;;;;;;;;;;4933866;29;19923;-64
2022/03/10 08:16:06;;;;;;;4.03;1.27;;;;;;;;;;4933605;29;20059;-64
2022/03/10 08:18:39;;;;;;;5.13;1.50;;;;;;;;;;4901996;29;20052;-64
2022/03/10 08:21:15;;;;;;;7.60;2.17;;;;;;;;;;4949633;28;20078;-64
2022/03/10 08:23:49;;;;;;;8.07;1.58;;;;;;;;;;4920243;29;20056;-64
2022/03/10 08:26:19;;;;;;;6.25;1.45;;;;;;;;;;4867974;29;20096;-64
2022/03/10 08:28:53;;;;;;;4.40;1.75;;;;;;;;;;4914499;29;20067;-64
2022/03/10 08:31:27;;;;;;;7.05;1.67;;;;;;;;;;4914588;29;20063;-64
2022/03/10 08:33:59;;;;;;;4.97;1.65;;;;;;;;;;4927382;29;20051;-64
2022/03/10 08:36:30;;;;;;;5.10;1.70;;;;;;;;;;4947742;28;20788;-64
2022/03/10 08:39:04;;;;;;;5.00;1.55;;;;;;;;;;4991207;28;20046;-64
2022/03/10 08:41:35;;;;;;;6.65;1.13;;;;;;;;;;4991429;28;20058;-64
2022/03/10 08:44:06;;;;;;;12.05;2.00;;;;;;;;;;5035248;28;20509;-64
2022/03/10 08:46:36;;;;;;;5.80;2.15;;;;;;;;;;5050730;28;20056;-64
2022/03/10 08:49:07;;;;;;;5.68;1.20;;;;;;;;;;5067498;28;20049;-64
2022/03/10 08:51:39;;;;;;;4.28;1.30;;;;;;;;;;5034221;28;20057;-64
2022/03/10 08:54:12;;;;;;;4.53;1.75;;;;;;;;;;5058185;28;20711;-64
2022/03/10 08:56:44;;;;;;;4.07;1.63;;;;;;;;;;5074305;28;20048;-64
2022/03/10 08:59:14;;;;;;;3.78;1.33;;;;;;;;;;5016618;28;20049;-64
2022/03/10 09:01:49;;;;;;;5.97;1.38;;;;;;;;;;5050259;28;20049;-64
2022/03/10 09:04:20;;;;;;;8.18;1.60;;;;;;;;;;5050388;28;20060;-64
2022/03/10 09:06:51;;;;;;;6.50;1.38;;;;;;;;;;5050009;28;20417;-64
2022/03/10 09:09:21;;;;;;;7.70;1.88;;;;;;;;;;5050222;28;20152;-64
2022/03/10 09:11:57;;;;;;;8.98;1.55;;;;;;;;;;5000180;28;20057;-64
2022/03/10 09:14:28;;;;;;;8.43;1.70;;;;;;;;;;5050167;28;20056;-64
2022/03/10 09:17:01;;;;;;;5.60;1.42;;;;;;;;;;5050049;28;20071;-64
2022/03/10 09:19:31;;;;;;;5.45;1.55;;;;;;;;;;5049816;28;20056;-64
2022/03/10 09:22:08;;;;;;;6.15;1.77;;;;;;;;;;5049805;28;20056;-64
2022/03/10 09:24:42;;;;;;;5.78;1.60;;;;;;;;;;5049874;28;20061;-64
2022/03/10 09:27:16;;;;;;;6.70;1.40;;;;;;;;;;5049704;28;20052;-64
2022/03/10 09:29:46;;;;;;;5.45;1.30;;;;;;;;;;5042291;28;20450;-64
2022/03/10 09:32:20;;;;;;;3.95;1.73;;;;;;;;;;5092392;28;20055;-64
2022/03/10 09:34:51;;;;;;;3.80;1.40;;;;;;;;;;5092147;28;20036;-64
2022/03/10 09:37:22;;;;;;;;;;;;;;;;;;5092500;28;20496;-64
2022/03/10 09:39:52;;;;;;;6.43;1.80;;;;;;;;;;5057097;28;19920;-64
2022/03/10 09:42:31;;;;;;;5.15;1.55;;;;;;;;;;5092214;28;20036;-64
2022/03/10 09:45:02;;;;;;;;;;;;;;;;;;5074980;28;20492;-64
2022/03/10 09:47:37;;;;;;;7.82;1.70;;;;;;;;;;5091942;28;19920;-64
2022/03/10 09:50:13;;;;;;;5.00;1.30;;;;;;;;;;5056320;28;20055;-64
2022/03/10 09:52:45;;;;;;;3.63;1.60;;;;;;;;;;5028980;28;20060;-64
2022/03/10 09:55:22;;;;;;;7.72;2.03;;;;;;;;;;5028786;28;20064;-64
2022/03/10 09:57:56;;;;;;;5.45;1.42;;;;;;;;;;4996395;28;20533;-64
2022/03/10 10:00:28;;;;;;;8.68;1.75;;;;;;;;;;5012874;28;20509;-64
2022/03/10 10:02:58;;;;;;;6.35;1.52;;;;;;;;;;5029108;28;20057;-64
2022/03/10 10:05:35;;;;;;;7.65;1.83;;;;;;;;;;5029000;28;20065;-64
2022/03/10 10:08:11;;;;;;;4.03;1.80;;;;;;;;;;4996019;28;20054;-64
2022/03/10 10:10:47;;;;;;;7.03;2.00;;;;;;;;;;5028778;28;20540;-64
2022/03/10 10:13:28;;;;;;;4.72;1.70;;;;;;;;;;5028988;28;20060;-64
2022/03/10 10:16:02;;;;;;;7.40;2.00;;;;;;;;;;5028762;28;20110;-64
2022/03/10 10:18:38;;;;;;;5.35;2.42;;;;;;;;;;4980397;28;20069;-64
2022/03/10 10:21:19;;;;;;;7.68;1.85;;;;;;;;;;5029095;28;20160;-64
2022/03/10 10:23:52;;;;;;;7.30;2.00;;;;;;;;;;5014388;28;20435;-64
2022/03/10 10:26:28;;;;;;;6.95;1.73;;;;;;;;;;5091380;28;20059;-64
2022/03/10 10:29:04;;;;;;;3.65;2.00;;;;;;;;;;5091272;28;20058;-63
2022/03/10 10:31:39;;;;;;;11.00;2.40;;;;;;;;;;5000761;28;20045;-63
2022/03/10 10:34:31;;;;;;;5.55;2.20;;;;;;;;;;5048678;28;20048;-64
2022/03/10 10:37:04;;;;;;;4.53;1.92;;;;;;;;;;5049078;28;20080;-64
2022/03/10 10:39:55;;;;;;;4.20;2.15;;;;;;;;;;5028237;28;20053;-64
2022/03/10 10:42:30;;;;;;;5.82;1.80;;;;;;;;;;5008657;28;21225;-63
2022/03/10 10:45:02;;;;;;;8.75;1.98;;;;;;;;;;5008783;28;20058;-63
2022/03/10 10:48:11;;;;;;;7.78;2.78;;;;;;;;;;5008710;28;20058;-63
2022/03/10 10:50:44;;;;;;;4.00;1.83;;;;;;;;;;4976155;28;20076;-63
2022/03/10 10:53:32;;;;;;;7.00;1.75;;;;;;;;;;5008744;28;20050;-63
2022/03/10 10:56:07;;;;;;;10.13;1.90;;;;;;;;;;5008421;28;20057;-63
2022/03/10 10:58:44;;;;;;;4.93;1.50;;;;;;;;;;4969334;28;20503;-64
2022/03/10 11:01:36;;;;;;;5.43;2.10;;;;;;;;;;4969649;28;20062;-64
2022/03/10 11:04:12;;;;;;;8.00;1.80;;;;;;;;;;4988924;28;20070;-64
2022/03/10 11:06:44;;;;;;;5.63;2.08;;;;;;;;;;4988925;28;20101;-63
2022/03/10 11:09:15;;;;;;;8.20;2.10;;;;;;;;;;4940592;28;20054;-64
2022/03/10 11:11:45;;;;;;;4.00;2.13;;;;;;;;;;4988902;28;20062;-64
2022/03/10 11:14:18;;;;;;;5.70;2.25;;;;;;;;;;4955947;28;20061;-64
2022/03/10 11:16:49;;;;;;;5.10;2.22;;;;;;;;;;4988794;28;20049;-64
2022/03/10 11:19:26;;;;;;;4.85;2.10;;;;;;;;;;5016236;28;20049;-64
2022/03/10 11:22:26;;;;;;;4.20;1.95;;;;;;;;;;5048076;28;20049;-64
2022/03/10 11:25:03;;;;;;;;;;;;;;;;;;5048559;28;20044;-64
2022/03/10 11:27:47;;;;;;;3.85;1.83;;;;;;;;;;5048167;28;20369;-64
2022/03/10 11:30:18;;;;;;;;;;;;;;;;;;5028212;28;20056;-64
2022/03/10 11:33:12;;;;;;;7.03;2.05;;;;;;;;;;4979016;28;19921;-64
2022/03/10 11:35:48;;;;;;;5.97;1.80;;;;;;;;;;5041128;28;20059;-64
2022/03/10 11:38:51;;;;;;;9.18;2.20;;;;;;;;;;5055053;28;20056;-64
2022/03/10 11:41:27;;;;;;;8.57;2.20;;;;;;;;;;5071689;28;20059;-64
2022/03/10 11:44:00;;;;;;;5.13;1.80;;;;;;;;;;5071711;28;20059;-64
2022/03/10 11:46:32;;;;;;;8.25;2.20;;;;;;;;;;5071513;28;20060;-64
2022/03/10 11:49:08;;;;;;;4.70;2.20;;;;;;;;;;5011696;28;20058;-64
2022/03/10 11:51:48;;;;;;;9.77;3.33;;;;;;;;;;4947988;28;20069;-64
2022/03/10 11:54:30;;;;;;;10.90;2.70;;;;;;;;;;4979078;28;20096;-64
2022/03/10 11:57:05;;;;;;;45.95;22.73;;;;;;;;;;5011562;28;20061;-65
2022/03/10 11:59:40;;;;;;;78.47;44.40;;;;;;;;;;5011727;28;20403;-65
2022/03/10 12:02:30;;;;;;;12.45;5.30;;;;;;;;;;5011541;28;20151;-65
2022/03/10 12:05:02;;;;;;;11.07;6.88;;;;;;;;;;4995728;28;20576;-65
2022/03/10 12:07:37;;;;;;;12.20;7.30;;;;;;;;;;5002527;28;20061;-64
2022/03/10 12:10:13;;;;;;;17.00;4.70;;;;;;;;;;4934791;28;20045;-64
2022/03/10 12:12:47;;;;;;;10.95;5.07;;;;;;;;;;4968302;28;20057;-64
2022/03/10 12:15:24;;;;;;;10.25;4.82;;;;;;;;;;5015681;28;20046;-64
2022/03/10 12:17:55;;;;;;;9.85;7.30;;;;;;;;;;4991782;28;20051;-64
2022/03/10 12:20:53;;;;;;;8.20;3.42;;;;;;;;;;4991807;28;20065;-64
2022/03/10 12:23:27;;;;;;;7.38;4.15;;;;;;;;;;4976193;28;20069;-64
2022/03/10 12:26:09;;;;;;;8.07;3.85;;;;;;;;;;5003182;28;20068;-64
2022/03/10 12:28:42;;;;;;;17.90;8.05;;;;;;;;;;5050901;28;20044;-64
2022/03/10 12:31:19;;;;;;;10.27;5.85;;;;;;;;;;5001369;28;20045;-65
2022/03/10 12:33:53;;;;;;;12.40;5.60;;;;;;;;;;4970393;28;20060;-65
2022/03/10 12:36:40;;;;;;;8.45;5.18;;;;;;;;;;5034742;28;20064;-65
2022/03/10 12:39:13;;;;;;;11.55;4.85;;;;;;;;;;5050946;28;20044;-64
2022/03/10 12:41:48;;;;;;;11.30;5.13;;;;;;;;;;5050727;28;20505;-65
2022/03/10 12:44:24;;;;;;;8.13;3.92;;;;;;;;;;5001949;28;20061;-64
2022/03/10 12:46:56;;;;;;;10.90;3.70;;;;;;;;;;5033363;28;20053;-65
2022/03/10 12:49:48;;;;;;;10.32;3.60;;;;;;;;;;5050302;28;20064;-65
2022/03/10 12:52:27;;;;;;;8.73;3.92;;;;;;;;;;4990721;28;20054;-64
2022/03/10 12:54:58;;;;;;;10.35;4.35;;;;;;;;;;5000946;28;20061;-64
2022/03/10 12:57:37;;;;;;;10.98;4.10;;;;;;;;;;5030218;28;20050;-65
2022/03/10 13:00:21;;;;;;;9.35;3.90;;;;;;;;;;5030579;28;20045;-64
2022/03/10 13:02:59;;;;;;;10.00;3.88;;;;;;;;;;5005909;28;20050;-65
2022/03/10 13:05:31;;;;;;;9.07;2.50;;;;;;;;;;4990940;28;20069;-65
2022/03/10 13:08:09;;;;;;;5.40;2.85;;;;;;;;;;4990829;28;20521;-65
2022/03/10 13:10:42;;;;;;;5.22;2.55;;;;;;;;;;4974459;28;20655;-64
2022/03/10 13:13:29;;;;;;;6.47;2.22;;;;;;;;;;4958596;28;20057;-64
2022/03/10 13:16:05;;;;;;;8.52;2.58;;;;;;;;;;4974321;28;20061;-64
2022/03/10 13:18:43;;;;;;;8.38;2.47;;;;;;;;;;4958776;28;20054;-64
2022/03/10 13:21:18;;;;;;;6.95;2.58;;;;;;;;;;5005872;28;20069;-64
2022/03/10 13:23:50;;;;;;;8.07;3.03;;;;;;;;;;4990467;28;20072;-64
2022/03/10 13:26:26;;;;;;;5.80;3.22;;;;;;;;;;4957582;28;20392;-64
2022/03/10 13:28:56;;;;;;;12.50;3.00;;;;;;;;;;4959596;28;20061;-65
2022/03/10 13:31:33;;;;;;;5.05;3.05;;;;;;;;;;4989824;28;20065;-64
2022/03/10 13:34:06;;;;;;;8.35;4.10;;;;;;;;;;4990386;28;20069;-64
2022/03/10 13:36:37;;;;;;;7.85;3.50;;;;;;;;;;4958290;28;20054;-64
2022/03/10 13:39:07;;;;;;;6.45;3.50;;;;;;;;;;4990348;28;20050;-63
2022/03/10 13:41:37;;;;;;;9.27;3.38;;;;;;;;;;5008657;28;20058;-64
2022/03/10 13:44:17;;;;;;;11.88;5.55;;;;;;;;;;4977365;28;20060;-64
2022/03/10 13:47:02;;;;;;;7.90;3.60;;;;;;;;;;4993632;28;20065;-64
2022/03/10 13:49:42;;;;;;;8.48;3.92;;;;;;;;;;4961258;28;20054;-64
2022/03/10 13:52:15;;;;;;;8.40;4.68;;;;;;;;;;4989887;28;20085;-63
2022/03/10 13:54:53;;;;;;;6.63;3.92;;;;;;;;;;4969816;28;20050;-64
2022/03/10 13:57:27;;;;;;;9.23;4.05;;;;;;;;;;4976371;28;20677;-64
2022/03/10 14:00:04;;;;;;;7.32;3.75;;;;;;;;;;5005436;28;20049;-63
2022/03/10 14:02:35;;;;;;;9.88;3.58;;;;;;;;;;5008941;28;20062;-64
2022/03/10 14:05:14;;;;;;;6.00;3.28;;;;;;;;;;5008888;28;20057;-64
2022/03/10 14:08:10;;;;;;;8.95;3.20;;;;;;;;;;4988987;28;20058;-64
2022/03/10 14:10:42;;;;;;;6.65;3.30;;;;;;;;;;5008826;28;20065;-64
2022/03/10 14:13:12;;;;;;;8.43;3.40;;;;;;;;;;4992076;28;20046;-64
2022/03/10 14:15:45;;;;;;;7.95;3.60;;;;;;;;;;4953569;28;20039;-64
2022/03/10 14:18:17;;;;;;;9.18;3.72;;;;;;;;;;4969598;28;20054;-64
2022/03/10 14:20:50;;;;;;;5.72;3.45;;;;;;;;;;4969157;28;20050;-64
2022/03/10 14:23:23;;;;;;;8.00;3.10;;;;;;;;;;4967451;28;20090;-63
2022/03/10 14:25:59;;;;;;;9.63;3.30;;;;;;;;;;4985652;28;20050;-64
2022/03/10 14:28:37;;;;;;;6.10;3.47;;;;;;;;;;4989015;28;20066;-64
2022/03/10 14:31:14;;;;;;;5.35;3.53;;;;;;;;;;4989611;28;20069;-64
2022/03/10 14:33:48;;;;;;;5.35;3.22;;;;;;;;;;4969842;28;20050;-64
2022/03/10 14:36:24;;;;;;;11.15;3.10;;;;;;;;;;4969733;28;20051;-64
2022/03/10 14:39:01;;;;;;;7.13;3.72;;;;;;;;;;4953805;28;20054;-63
2022/03/10 14:41:34;;;;;;;5.68;3.20;;;;;;;;;;4953635;28;20054;-64
2022/03/10 14:44:05;;;;;;;8.75;4.63;;;;;;;;;;4970043;28;20510;-63
2022/03/10 14:46:40;;;;;;;7.50;3.70;;;;;;;;;;5028182;28;20061;-63
2022/03/10 14:49:15;;;;;;;6.15;3.90;;;;;;;;;;5027816;28;20042;-64
2022/03/10 14:51:45;;;;;;;8.50;3.42;;;;;;;;;;4932748;28;20057;-63
2022/03/10 14:54:17;;;;;;;6.18;3.20;;;;;;;;;;5002930;28;20522;-63
2022/03/10 14:56:48;;;;;;;7.68;3.60;;;;;;;;;;5008389;28;20097;-63
2022/03/10 14:59:22;;;;;;;8.07;3.60;;;;;;;;;;5008691;28;20076;-63
2022/03/10 15:01:56;;;;;;;5.28;2.50;;;;;;;;;;4976097;28;20050;-64
2022/03/10 15:04:27;;;;;;;6.47;2.67;;;;;;;;;;4976406;28;20053;-63
2022/03/10 15:06:59;;;;;;;8.20;2.95;;;;;;;;;;5008585;28;20061;-63
2022/03/10 15:09:40;;;;;;;9.90;2.70;;;;;;;;;;4976156;28;20061;-63
2022/03/10 15:12:15;;;;;;;6.18;2.30;;;;;;;;;;5012576;28;20133;-63
2022/03/10 15:14:53;;;;;;;7.57;2.15;;;;;;;;;;5012629;28;20062;-63
2022/03/10 15:17:24;;;;;;;5.45;3.78;;;;;;;;;;5012321;28;21222;-63
2022/03/10 15:19:57;;;;;;;6.03;2.28;;;;;;;;;;4992744;28;20057;-63
2022/03/10 15:22:30;;;;;;;3.78;1.88;;;;;;;;;;4992921;28;20161;-62
2022/03/10 15:25:02;;;;;;;6.20;1.52;;;;;;;;;;4948122;28;20065;-63
2022/03/10 15:27:33;;;;;;;2.60;1.25;;;;;;;;;;5012215;28;20069;-63
2022/03/10 15:30:06;;;;;;;4.07;1.20;;;;;;;;;;5012463;28;20049;-62